createdAt,value
2022-10-26T00:04:46.698Z,2.90
2022-10-26T00:09:48.048Z,3.42
2022-10-26T00:14:49.384Z,2.50
2022-10-26T00:19:50.780Z,2.33
2022-10-26T00:24:52.314Z,3.13
2022-10-26T00:29:53.660Z,3.17
2022-10-26T00:34:55.093Z,2.83
2022-10-26T00:39:56.437Z,2.78
2022-10-26T00:45:19.228Z,2.58
2022-10-26T00:50:26.163Z,2.85
2022-10-26T00:55:35.440Z,2.35
2022-10-26T01:00:36.839Z,2.58
2022-10-26T01:05:42.313Z,3.90
2022-10-26T01:10:44.266Z,3.03
2022-10-26T01:15:58.992Z,3.08
2022-10-26T01:21:27.538Z,2.58
2022-10-26T01:26:47.056Z,2.83
2022-10-26T01:32:03.841Z,2.53
2022-10-26T01:37:12.102Z,4.17
2022-10-26T01:42:17.081Z,3.70
2022-10-26T01:47:23.486Z,3.63
2022-10-26T01:52:25.057Z,3.95
2022-10-26T01:57:26.460Z,3.50
2022-10-26T02:02:41.772Z,3.38
2022-10-26T02:08:07.647Z,3.90
2022-10-26T02:13:15.689Z,3.25
2022-10-26T02:18:38.127Z,2.53
2022-10-26T02:23:43.999Z,2.25
2022-10-26T02:28:53.883Z,2.30
2022-10-26T02:34:01.171Z,2.30
2022-10-26T02:44:14.688Z,3.15
2022-10-26T02:49:16.656Z,2.40
2022-10-26T02:54:32.570Z,3.80
2022-10-26T02:59:37.273Z,2.25
2022-10-26T03:04:38.640Z,2.38
2022-10-26T03:09:39.976Z,2.67
2022-10-26T03:14:41.418Z,2.70
2022-10-26T03:19:42.755Z,3.50
2022-10-26T03:24:44.123Z,4.05
2022-10-26T03:29:45.512Z,3.13
2022-10-26T03:34:46.822Z,3.15
2022-10-26T03:39:48.183Z,2.47
2022-10-26T03:44:49.703Z,2.72
2022-10-26T03:49:51.086Z,2.55
2022-10-26T03:54:52.440Z,2.15
2022-10-26T03:59:53.777Z,2.13
2022-10-26T04:04:55.282Z,3.25
2022-10-26T04:09:56.614Z,2.45
2022-10-26T04:14:58.344Z,2.83
2022-10-26T04:19:59.750Z,3.55
2022-10-26T04:25:01.075Z,2.88
2022-10-26T04:30:02.431Z,3.00
2022-10-26T04:35:03.998Z,2.88
2022-10-26T04:45:13.988Z,3.03
2022-10-26T04:50:15.355Z,2.75
2022-10-26T04:55:16.791Z,2.83
2022-10-26T05:00:18.322Z,2.70
2022-10-26T05:05:19.669Z,3.58
2022-10-26T05:10:21.063Z,3.40
2022-10-26T05:15:22.603Z,2.70
2022-10-26T05:20:29.589Z,4.10
2022-10-26T05:25:33.986Z,3.50
2022-10-26T05:30:35.508Z,2.72
2022-10-26T05:35:37.473Z,3.67
2022-10-26T05:40:38.845Z,3.78
2022-10-26T05:45:40.180Z,2.55
2022-10-26T05:50:41.538Z,3.25
2022-10-26T05:55:43.483Z,3.08
2022-10-26T06:01:23.403Z,4.10
2022-10-26T06:06:37.700Z,4.15
2022-10-26T06:11:39.547Z,3.17
2022-10-26T06:17:24.739Z,2.97
2022-10-26T06:23:01.124Z,3.50
2022-10-26T06:28:21.534Z,3.80
2022-10-26T06:33:29.478Z,3.55
2022-10-26T06:38:34.334Z,3.38
2022-10-26T06:43:35.989Z,4.15
2022-10-26T06:48:51.808Z,3.17
2022-10-26T06:54:05.551Z,4.30
2022-10-26T06:59:13.815Z,4.13
2022-10-26T07:04:15.166Z,3.72
2022-10-26T07:09:16.508Z,3.13
2022-10-26T07:14:17.867Z,2.95
2022-10-26T07:19:19.254Z,2.67
2022-10-26T07:24:20.587Z,3.17
2022-10-26T07:29:23.211Z,3.10
2022-10-26T07:34:24.563Z,3.00
2022-10-26T07:39:26.405Z,3.38
2022-10-26T07:44:27.883Z,3.05
2022-10-26T07:49:29.233Z,3.08
2022-10-26T07:54:30.615Z,3.33
2022-10-26T07:59:32.006Z,3.30
2022-10-26T08:04:33.355Z,2.83
2022-10-26T08:09:34.691Z,3.38
2022-10-26T08:14:36.035Z,4.05
2022-10-26T08:19:37.551Z,3.13
2022-10-26T08:24:38.956Z,3.83
2022-10-26T08:29:41.031Z,3.25
2022-10-26T08:34:42.367Z,3.65
2022-10-26T08:39:43.761Z,3.67
2022-10-26T08:44:51.302Z,3.50
2022-10-26T08:50:02.969Z,3.45
2022-10-26T08:55:10.336Z,3.72
2022-10-26T09:00:17.296Z,3.50
2022-10-26T09:05:23.663Z,3.40
2022-10-26T09:11:10.304Z,3.47
2022-10-26T09:16:20.882Z,3.35
2022-10-26T09:21:39.474Z,3.45
2022-10-26T09:27:01.517Z,3.80
2022-10-26T09:32:04.788Z,2.83
2022-10-26T09:37:20.518Z,3.38
2022-10-26T09:42:36.519Z,3.40
2022-10-26T09:47:39.549Z,3.33
2022-10-26T09:52:40.967Z,3.78
2022-10-26T09:57:45.590Z,3.13
2022-10-26T10:02:53.096Z,3.75
2022-10-26T10:08:25.101Z,3.03
2022-10-26T10:13:29.750Z,3.03
2022-10-26T10:18:32.029Z,3.40
2022-10-26T10:23:36.510Z,2.72
2022-10-26T10:28:40.168Z,2.63
2022-10-26T10:33:42.620Z,2.72
2022-10-26T10:38:45.697Z,1.75
2022-10-26T10:44:09.094Z,2.45
2022-10-26T10:49:23.616Z,2.67
2022-10-26T10:54:34.628Z,1.95
2022-10-26T10:59:50.919Z,2.60
2022-10-26T11:05:23.472Z,1.70
2022-10-26T11:10:36.793Z,1.60
2022-10-26T11:15:42.186Z,1.40
2022-10-26T11:20:51.896Z,1.42
2022-10-26T11:26:00.132Z,1.63
2022-10-26T11:31:06.571Z,1.45
2022-10-26T11:36:19.855Z,1.48
2022-10-26T11:41:31.211Z,1.50
2022-10-26T11:46:41.419Z,1.80
2022-10-26T11:52:04.401Z,1.98
2022-10-26T11:57:05.959Z,1.23
2022-10-26T12:02:16.282Z,1.77
2022-10-26T12:07:24.739Z,1.80
2022-10-26T12:12:38.846Z,2.05
2022-10-26T12:18:36.737Z,1.80
2022-10-26T12:24:22.093Z,2.05
2022-10-26T12:29:26.579Z,1.63
2022-10-26T12:34:30.705Z,2.95
2022-10-26T12:39:37.582Z,1.58
2022-10-26T12:50:22.527Z,0.85
2022-10-26T12:55:42.075Z,1.13
2022-10-26T13:01:08.427Z,1.75
2022-10-26T13:06:36.150Z,0.90
2022-10-26T13:11:43.660Z,0.90
2022-10-26T13:16:46.462Z,1.05
2022-10-26T13:21:49.654Z,1.50
2022-10-26T13:27:07.200Z,1.20
2022-10-26T13:32:09.148Z,0.93
2022-10-26T13:37:24.208Z,1.10
2022-10-26T13:42:39.557Z,1.10
2022-10-26T13:48:08.084Z,1.40
2022-10-26T13:53:41.320Z,0.95
2022-10-26T13:58:55.249Z,1.65
2022-10-26T14:03:57.665Z,0.90
2022-10-26T14:09:12.089Z,0.93
2022-10-26T14:14:36.214Z,1.10
2022-10-26T14:19:40.781Z,1.20
2022-10-26T14:24:51.714Z,0.90
2022-10-26T14:30:20.535Z,0.88
2022-10-26T14:35:16.611Z,2.63
2022-10-26T14:40:23.830Z,0.82
2022-10-26T14:50:59.620Z,1.02
2022-10-26T14:56:01.730Z,0.93
2022-10-26T15:01:22.233Z,1.00
2022-10-26T15:06:34.105Z,0.90
2022-10-26T15:11:41.551Z,0.90
2022-10-26T15:16:54.051Z,1.73
2022-10-26T15:21:55.579Z,1.52
2022-10-26T15:26:57.387Z,2.92
2022-10-26T15:37:10.083Z,1.75
2022-10-26T15:42:14.734Z,1.83
2022-10-26T15:47:19.470Z,1.30
2022-10-26T15:52:20.859Z,1.10
2022-10-26T15:57:23.146Z,1.58
2022-10-26T16:02:24.530Z,1.75
2022-10-26T16:07:27.370Z,2.28
2022-10-26T16:12:28.818Z,1.77
2022-10-26T16:17:30.160Z,1.40
2022-10-26T16:22:33.719Z,2.03
2022-10-26T16:27:37.749Z,2.27
2022-10-26T16:32:39.857Z,2.53
2022-10-26T16:37:41.379Z,2.40
2022-10-26T16:42:44.510Z,3.22
2022-10-26T16:47:45.938Z,2.22
2022-10-26T16:52:47.283Z,3.58
2022-10-26T16:57:49.066Z,3.33
2022-10-26T17:02:50.700Z,2.63
2022-10-26T17:07:52.294Z,3.30
2022-10-26T17:12:55.708Z,2.58
2022-10-26T17:17:57.127Z,3.40
2022-10-26T17:22:58.502Z,3.47
2022-10-26T17:27:59.900Z,5.10
2022-10-26T17:33:01.607Z,4.07
2022-10-26T17:38:03.503Z,7.00
2022-10-26T17:43:04.916Z,5.22
2022-10-26T17:48:06.328Z,6.03
2022-10-26T17:53:07.758Z,7.07
2022-10-26T17:58:09.246Z,8.50
2022-10-26T18:03:10.745Z,14.32
2022-10-26T18:08:12.199Z,11.05
2022-10-26T18:13:13.729Z,8.38
2022-10-26T18:18:15.192Z,8.32
2022-10-26T18:23:16.718Z,4.60
2022-10-26T18:28:18.234Z,3.83
2022-10-26T18:33:19.766Z,4.97
2022-10-26T18:38:21.218Z,6.28
2022-10-26T18:43:22.806Z,7.35
2022-10-26T18:48:24.338Z,5.72
2022-10-26T18:53:25.754Z,6.30
2022-10-26T18:58:36.085Z,5.68
2022-10-26T19:03:38.890Z,6.18
2022-10-26T19:08:41.121Z,5.38
2022-10-26T19:13:42.717Z,6.00
2022-10-26T19:18:44.799Z,6.57
2022-10-26T19:23:48.603Z,9.82
2022-10-26T19:28:57.849Z,8.35
2022-10-26T19:34:00.335Z,7.78
2022-10-26T19:39:02.208Z,7.20
2022-10-26T19:44:04.434Z,6.00
2022-10-26T19:49:05.959Z,6.13
2022-10-26T19:54:07.698Z,6.28
2022-10-26T19:59:11.059Z,6.78
2022-10-26T20:04:13.291Z,7.38
2022-10-26T20:09:14.800Z,7.32
2022-10-26T20:14:16.257Z,6.60
2022-10-26T20:19:17.889Z,6.05
2022-10-26T20:24:19.344Z,6.20
2022-10-26T20:29:21.753Z,6.45
2022-10-26T20:34:23.278Z,6.22
2022-10-26T20:39:25.075Z,7.00
2022-10-26T20:44:31.732Z,7.47
2022-10-26T20:49:33.423Z,7.47
2022-10-26T20:54:45.782Z,6.22
2022-10-26T20:59:51.908Z,7.82
2022-10-26T21:04:53.372Z,7.70
2022-10-26T21:09:54.889Z,7.22
2022-10-26T21:14:56.384Z,6.82
2022-10-26T21:19:57.819Z,7.43
2022-10-26T21:24:59.175Z,6.72
2022-10-26T21:30:00.517Z,7.30
2022-10-26T21:35:01.950Z,8.70
2022-10-26T21:40:03.519Z,7.28
2022-10-26T21:45:05.414Z,6.05
2022-10-26T21:50:07.300Z,6.45
2022-10-26T21:55:09.214Z,8.00
2022-10-26T22:00:11.187Z,5.40
2022-10-26T22:05:12.620Z,6.03
2022-10-26T22:10:14.040Z,5.38
2022-10-26T22:15:16.784Z,4.63
2022-10-26T22:20:18.173Z,4.72
2022-10-26T22:25:19.486Z,4.97
2022-10-26T22:30:21.084Z,4.75
2022-10-26T22:35:29.451Z,5.68
2022-10-26T22:40:31.055Z,5.68
2022-10-26T22:45:32.434Z,5.05
2022-10-26T22:50:33.788Z,8.68
2022-10-26T22:55:35.118Z,7.38
2022-10-26T23:00:37.660Z,5.25
2022-10-26T23:05:45.567Z,5.70
2022-10-26T23:10:46.900Z,5.95
2022-10-26T23:15:48.268Z,6.88
2022-10-26T23:20:50.747Z,5.65
2022-10-26T23:25:52.075Z,5.35
2022-10-26T23:30:55.878Z,4.88
2022-10-26T23:35:57.740Z,4.00
2022-10-26T23:40:59.928Z,3.75
2022-10-26T23:46:01.509Z,4.13
2022-10-26T23:51:02.910Z,3.35
2022-10-26T23:56:04.472Z,3.60
